sensor_id;sensor_type;location;lat;lon;timestamp;temperature;humidity
36322;DHT22;23564;48.290;11.460;2023-04-01T00:02:00;7.90;1.00
36322;DHT22;23564;48.290;11.460;2023-04-01T00:04:25;7.90;1.70
36322;DHT22;23564;48.290;11.460;2023-04-01T00:06:51;7.80;37.60
36322;DHT22;23564;48.290;11.460;2023-04-01T00:09:17;7.80;99.90
36322;DHT22;23564;48.290;11.460;2023-04-01T00:11:43;7.80;91.20
36322;DHT22;23564;48.290;11.460;2023-04-01T00:14:12;7.70;28.80
36322;DHT22;23564;48.290;11.460;2023-04-01T00:16:38;7.70;81.10
36322;DHT22;23564;48.290;11.460;2023-04-01T00:19:03;7.70;69.00
36322;DHT22;23564;48.290;11.460;2023-04-01T00:21:29;7.60;99.90
36322;DHT22;23564;48.290;11.460;2023-04-01T00:23:54;7.60;99.90
36322;DHT22;23564;48.290;11.460;2023-04-01T00:26:21;7.50;99.90
36322;DHT22;23564;48.290;11.460;2023-04-01T00:28:47;7.60;99.90
36322;DHT22;23564;48.290;11.460;2023-04-01T00:31:13;7.60;99.90
36322;DHT22;23564;48.290;11.460;2023-04-01T00:33:39;7.60;99.90
36322;DHT22;23564;48.290;11.460;2023-04-01T00:36:14;7.60;99.90
36322;DHT22;23564;48.290;11.460;2023-04-01T00:38:41;7.60;99.90
36322;DHT22;23564;48.290;11.460;2023-04-01T00:41:09;7.60;99.90
36322;DHT22;23564;48.290;11.460;2023-04-01T00:43:40;7.60;99.90
36322;DHT22;23564;48.290;11.460;2023-04-01T00:46:06;7.60;99.90
36322;DHT22;23564;48.290;11.460;2023-04-01T00:48:34;7.60;99.90
36322;DHT22;23564;48.290;11.460;2023-04-01T00:51:14;7.60;99.90
36322;DHT22;23564;48.290;11.460;2023-04-01T00:53:44;7.60;99.90
36322;DHT22;23564;48.290;11.460;2023-04-01T00:56:14;7.60;99.90
36322;DHT22;23564;48.290;11.460;2023-04-01T00:58:44;7.60;99.90
36322;DHT22;23564;48.290;11.460;2023-04-01T01:01:12;7.60;99.90
36322;DHT22;23564;48.290;11.460;2023-04-01T01:03:37;7.70;99.90
36322;DHT22;23564;48.290;11.460;2023-04-01T01:11:50;7.60;99.90
36322;DHT22;23564;48.290;11.460;2023-04-01T01:14:23;7.60;99.90
36322;DHT22;23564;48.290;11.460;2023-04-01T01:17:10;7.60;99.90
36322;DHT22;23564;48.290;11.460;2023-04-01T01:23:37;7.50;99.90
36322;DHT22;23564;48.290;11.460;2023-04-01T01:25:59;7.50;99.90
36322;DHT22;23564;48.290;11.460;2023-04-01T01:31:51;7.60;99.90
36322;DHT22;23564;48.290;11.460;2023-04-01T01:34:32;7.60;99.90
36322;DHT22;23564;48.290;11.460;2023-04-01T01:37:06;7.60;99.90
36322;DHT22;23564;48.290;11.460;2023-04-01T01:39:34;7.60;99.90
36322;DHT22;23564;48.290;11.460;2023-04-01T01:42:04;7.60;99.90
36322;DHT22;23564;48.290;11.460;2023-04-01T01:44:31;7.60;99.90
36322;DHT22;23564;48.290;11.460;2023-04-01T01:46:59;7.60;99.90
36322;DHT22;23564;48.290;11.460;2023-04-01T01:49:27;7.60;99.90
36322;DHT22;23564;48.290;11.460;2023-04-01T01:51:55;7.60;99.90
36322;DHT22;23564;48.290;11.460;2023-04-01T01:54:21;7.60;99.90
36322;DHT22;23564;48.290;11.460;2023-04-01T01:56:50;7.60;99.90
36322;DHT22;23564;48.290;11.460;2023-04-01T01:59:20;7.70;99.90
36322;DHT22;23564;48.290;11.460;2023-04-01T02:01:51;7.70;98.80
36322;DHT22;23564;48.290;11.460;2023-04-01T02:04:19;7.70;99.90
36322;DHT22;23564;48.290;11.460;2023-04-01T02:07:03;7.60;99.90
36322;DHT22;23564;48.290;11.460;2023-04-01T02:09:30;7.60;98.20
36322;DHT22;23564;48.290;11.460;2023-04-01T02:12:02;7.60;99.90
36322;DHT22;23564;48.290;11.460;2023-04-01T02:17:02;7.60;58.30
36322;DHT22;23564;48.290;11.460;2023-04-01T02:19:39;7.60;35.80
36322;DHT22;23564;48.290;11.460;2023-04-01T02:22:10;7.60;37.50
36322;DHT22;23564;48.290;11.460;2023-04-01T02:24:38;7.60;92.80
36322;DHT22;23564;48.290;11.460;2023-04-01T02:27:05;7.50;99.90
36322;DHT22;23564;48.290;11.460;2023-04-01T02:29:30;7.50;99.90
36322;DHT22;23564;48.290;11.460;2023-04-01T02:31:56;7.50;99.90
36322;DHT22;23564;48.290;11.460;2023-04-01T02:34:24;7.50;99.90
36322;DHT22;23564;48.290;11.460;2023-04-01T02:36:51;7.50;99.90
36322;DHT22;23564;48.290;11.460;2023-04-01T02:39:17;7.40;99.90
36322;DHT22;23564;48.290;11.460;2023-04-01T02:41:44;7.40;99.90
36322;DHT22;23564;48.290;11.460;2023-04-01T02:44:12;7.40;99.90
36322;DHT22;23564;48.290;11.460;2023-04-01T02:46:39;7.50;99.90
36322;DHT22;23564;48.290;11.460;2023-04-01T02:49:05;7.50;99.90
36322;DHT22;23564;48.290;11.460;2023-04-01T02:51:32;7.40;99.90
36322;DHT22;23564;48.290;11.460;2023-04-01T02:53:57;7.40;99.90
36322;DHT22;23564;48.290;11.460;2023-04-01T02:56:23;7.30;99.90
36322;DHT22;23564;48.290;11.460;2023-04-01T02:58:48;7.30;99.90
36322;DHT22;23564;48.290;11.460;2023-04-01T03:01:14;7.30;99.90
36322;DHT22;23564;48.290;11.460;2023-04-01T03:03:40;7.30;99.90
36322;DHT22;23564;48.290;11.460;2023-04-01T03:06:07;7.30;99.90
36322;DHT22;23564;48.290;11.460;2023-04-01T03:08:34;7.30;99.90
36322;DHT22;23564;48.290;11.460;2023-04-01T03:11:00;7.30;99.90
36322;DHT22;23564;48.290;11.460;2023-04-01T03:13:26;7.30;99.90
36322;DHT22;23564;48.290;11.460;2023-04-01T03:15:51;7.30;99.90
36322;DHT22;23564;48.290;11.460;2023-04-01T03:18:17;7.30;99.90
36322;DHT22;23564;48.290;11.460;2023-04-01T03:20:43;7.30;99.90
36322;DHT22;23564;48.290;11.460;2023-04-01T03:23:08;7.30;99.90
36322;DHT22;23564;48.290;11.460;2023-04-01T03:25:34;7.30;99.90
36322;DHT22;23564;48.290;11.460;2023-04-01T03:27:59;7.20;99.90
36322;DHT22;23564;48.290;11.460;2023-04-01T03:30:26;7.20;99.90
36322;DHT22;23564;48.290;11.460;2023-04-01T03:32:52;7.20;99.90
36322;DHT22;23564;48.290;11.460;2023-04-01T03:35:18;7.20;99.90
36322;DHT22;23564;48.290;11.460;2023-04-01T03:37:43;7.20;99.90
36322;DHT22;23564;48.290;11.460;2023-04-01T03:40:10;7.20;99.90
36322;DHT22;23564;48.290;11.460;2023-04-01T03:42:35;7.20;99.90
36322;DHT22;23564;48.290;11.460;2023-04-01T03:45:03;7.10;99.90
36322;DHT22;23564;48.290;11.460;2023-04-01T03:47:29;7.10;99.90
36322;DHT22;23564;48.290;11.460;2023-04-01T03:49:54;7.00;99.90
36322;DHT22;23564;48.290;11.460;2023-04-01T03:52:20;7.10;99.90
36322;DHT22;23564;48.290;11.460;2023-04-01T03:54:46;7.00;99.90
36322;DHT22;23564;48.290;11.460;2023-04-01T03:57:11;7.10;99.90
36322;DHT22;23564;48.290;11.460;2023-04-01T03:59:37;7.10;99.90
36322;DHT22;23564;48.290;11.460;2023-04-01T04:02:03;7.10;99.90
36322;DHT22;23564;48.290;11.460;2023-04-01T04:04:29;7.20;99.90
36322;DHT22;23564;48.290;11.460;2023-04-01T04:06:56;7.10;99.90
36322;DHT22;23564;48.290;11.460;2023-04-01T04:09:22;7.20;99.90
36322;DHT22;23564;48.290;11.460;2023-04-01T04:11:48;7.20;99.90
36322;DHT22;23564;48.290;11.460;2023-04-01T04:14:14;7.20;99.90
36322;DHT22;23564;48.290;11.460;2023-04-01T04:16:40;7.20;99.90
36322;DHT22;23564;48.290;11.460;2023-04-01T04:19:05;7.10;99.90
36322;DHT22;23564;48.290;11.460;2023-04-01T04:21:31;7.20;99.90
36322;DHT22;23564;48.290;11.460;2023-04-01T04:23:58;7.20;99.90
36322;DHT22;23564;48.290;11.460;2023-04-01T04:26:24;7.20;99.90
36322;DHT22;23564;48.290;11.460;2023-04-01T04:28:49;7.20;99.90
36322;DHT22;23564;48.290;11.460;2023-04-01T04:31:22;7.20;99.90
36322;DHT22;23564;48.290;11.460;2023-04-01T04:33:48;7.20;99.90
36322;DHT22;23564;48.290;11.460;2023-04-01T04:36:14;7.20;99.90
36322;DHT22;23564;48.290;11.460;2023-04-01T04:38:40;7.20;99.90
36322;DHT22;23564;48.290;11.460;2023-04-01T04:41:23;7.10;99.90
36322;DHT22;23564;48.290;11.460;2023-04-01T04:43:51;7.10;99.90
36322;DHT22;23564;48.290;11.460;2023-04-01T04:46:17;7.10;99.90
36322;DHT22;23564;48.290;11.460;2023-04-01T04:48:43;7.10;99.90
36322;DHT22;23564;48.290;11.460;2023-04-01T04:51:15;7.20;99.90
36322;DHT22;23564;48.290;11.460;2023-04-01T04:53:42;7.20;99.90
36322;DHT22;23564;48.290;11.460;2023-04-01T04:56:07;7.20;99.90
36322;DHT22;23564;48.290;11.460;2023-04-01T04:58:33;7.10;99.90
36322;DHT22;23564;48.290;11.460;2023-04-01T05:00:59;7.10;99.90
36322;DHT22;23564;48.290;11.460;2023-04-01T05:03:24;7.10;99.90
36322;DHT22;23564;48.290;11.460;2023-04-01T05:05:51;7.00;99.90
36322;DHT22;23564;48.290;11.460;2023-04-01T05:08:17;7.00;99.90
36322;DHT22;23564;48.290;11.460;2023-04-01T05:10:43;7.00;99.90
36322;DHT22;23564;48.290;11.460;2023-04-01T05:13:08;7.10;99.90
36322;DHT22;23564;48.290;11.460;2023-04-01T05:15:35;7.10;99.90
36322;DHT22;23564;48.290;11.460;2023-04-01T05:18:01;7.20;99.90
36322;DHT22;23564;48.290;11.460;2023-04-01T05:20:26;7.30;99.90
36322;DHT22;23564;48.290;11.460;2023-04-01T05:22:56;7.30;99.90
36322;DHT22;23564;48.290;11.460;2023-04-01T05:25:21;7.40;99.90
36322;DHT22;23564;48.290;11.460;2023-04-01T05:27:47;7.40;99.90
36322;DHT22;23564;48.290;11.460;2023-04-01T05:30:13;7.50;99.90
36322;DHT22;23564;48.290;11.460;2023-04-01T05:32:38;7.60;99.90
36322;DHT22;23564;48.290;11.460;2023-04-01T05:35:04;7.60;99.90
36322;DHT22;23564;48.290;11.460;2023-04-01T05:37:30;7.70;99.90
36322;DHT22;23564;48.290;11.460;2023-04-01T05:39:55;7.70;99.90
36322;DHT22;23564;48.290;11.460;2023-04-01T05:42:21;7.70;39.60
36322;DHT22;23564;48.290;11.460;2023-04-01T05:44:46;7.70;1.00
36322;DHT22;23564;48.290;11.460;2023-04-01T05:47:12;7.70;18.20
36322;DHT22;23564;48.290;11.460;2023-04-01T05:49:38;7.70;1.00
36322;DHT22;23564;48.290;11.460;2023-04-01T05:52:03;7.70;1.00
36322;DHT22;23564;48.290;11.460;2023-04-01T05:54:29;7.70;1.00
36322;DHT22;23564;48.290;11.460;2023-04-01T05:56:55;7.80;1.00
36322;DHT22;23564;48.290;11.460;2023-04-01T05:59:20;7.70;1.00
36322;DHT22;23564;48.290;11.460;2023-04-01T06:01:46;7.70;1.00
36322;DHT22;23564;48.290;11.460;2023-04-01T06:04:16;7.70;1.00
36322;DHT22;23564;48.290;11.460;2023-04-01T06:06:42;7.70;1.00
36322;DHT22;23564;48.290;11.460;2023-04-01T06:09:28;7.70;1.00
36322;DHT22;23564;48.290;11.460;2023-04-01T06:15:00;7.80;99.90
36322;DHT22;23564;48.290;11.460;2023-04-01T06:17:41;7.80;99.90
36322;DHT22;23564;48.290;11.460;2023-04-01T06:50:21;8.70;99.90
36322;DHT22;23564;48.290;11.460;2023-04-01T06:53:12;8.70;4.40
36322;DHT22;23564;48.290;11.460;2023-04-01T06:55:55;8.70;99.90
36322;DHT22;23564;48.290;11.460;2023-04-01T06:58:28;8.70;1.00
36322;DHT22;23564;48.290;11.460;2023-04-01T07:01:02;8.70;99.90
36322;DHT22;23564;48.290;11.460;2023-04-01T07:03:44;8.70;99.90
36322;DHT22;23564;48.290;11.460;2023-04-01T07:06:36;8.80;1.00
36322;DHT22;23564;48.290;11.460;2023-04-01T07:09:09;8.90;99.90
36322;DHT22;23564;48.290;11.460;2023-04-01T07:11:38;9.00;32.70
36322;DHT22;23564;48.290;11.460;2023-04-01T07:16:51;9.10;1.00
36322;DHT22;23564;48.290;11.460;2023-04-01T07:19:42;9.10;1.00
36322;DHT22;23564;48.290;11.460;2023-04-01T07:25:24;9.00;1.00
36322;DHT22;23564;48.290;11.460;2023-04-01T07:27:53;8.90;1.00
36322;DHT22;23564;48.290;11.460;2023-04-01T07:30:23;8.90;7.80
36322;DHT22;23564;48.290;11.460;2023-04-01T07:33:15;9.00;99.90
36322;DHT22;23564;48.290;11.460;2023-04-01T07:35:53;9.10;1.00
36322;DHT22;23564;48.290;11.460;2023-04-01T07:41:29;9.20;1.00
36322;DHT22;23564;48.290;11.460;2023-04-01T07:44:29;9.30;1.00
36322;DHT22;23564;48.290;11.460;2023-04-01T07:47:20;9.30;1.00
36322;DHT22;23564;48.290;11.460;2023-04-01T07:55:34;9.50;99.90
36322;DHT22;23564;48.290;11.460;2023-04-01T07:58:13;9.60;99.90
36322;DHT22;23564;48.290;11.460;2023-04-01T08:06:31;9.80;99.90
36322;DHT22;23564;48.290;11.460;2023-04-01T08:09:11;9.80;99.90
36322;DHT22;23564;48.290;11.460;2023-04-01T08:17:02;9.80;33.50
36322;DHT22;23564;48.290;11.460;2023-04-01T08:22:26;9.70;29.90
36322;DHT22;23564;48.290;11.460;2023-04-01T08:24:54;9.80;90.40
36322;DHT22;23564;48.290;11.460;2023-04-01T08:27:28;9.80;1.00
36322;DHT22;23564;48.290;11.460;2023-04-01T08:29:59;9.90;2.80
36322;DHT22;23564;48.290;11.460;2023-04-01T08:32:53;10.10;56.80
36322;DHT22;23564;48.290;11.460;2023-04-01T08:37:54;10.10;1.00
36322;DHT22;23564;48.290;11.460;2023-04-01T08:43:40;10.20;1.00
36322;DHT22;23564;48.290;11.460;2023-04-01T08:46:38;10.30;1.00
36322;DHT22;23564;48.290;11.460;2023-04-01T08:52:20;10.40;1.00
36322;DHT22;23564;48.290;11.460;2023-04-01T08:55:21;10.60;1.00
36322;DHT22;23564;48.290;11.460;2023-04-01T09:21:10;11.30;99.90
36322;DHT22;23564;48.290;11.460;2023-04-01T09:23:53;11.30;99.90
36322;DHT22;23564;48.290;11.460;2023-04-01T09:32:09;11.30;99.90
36322;DHT22;23564;48.290;11.460;2023-04-01T09:38:08;11.20;99.90
36322;DHT22;23564;48.290;11.460;2023-04-01T09:43:39;11.30;99.90
36322;DHT22;23564;48.290;11.460;2023-04-01T09:49:12;11.30;99.90
36322;DHT22;23564;48.290;11.460;2023-04-01T09:52:18;11.30;99.90
36322;DHT22;23564;48.290;11.460;2023-04-01T10:04:09;11.70;99.90
36322;DHT22;23564;48.290;11.460;2023-04-01T10:06:51;11.90;99.90
36322;DHT22;23564;48.290;11.460;2023-04-01T10:12:19;11.90;17.60
36322;DHT22;23564;48.290;11.460;2023-04-01T10:21:07;12.00;42.40
36322;DHT22;23564;48.290;11.460;2023-04-01T10:35:03;11.70;3.40
36322;DHT22;23564;48.290;11.460;2023-04-01T10:38:01;11.70;1.00
36322;DHT22;23564;48.290;11.460;2023-04-01T10:40:53;11.70;16.50
36322;DHT22;23564;48.290;11.460;2023-04-01T10:49:09;12.00;26.40
36322;DHT22;23564;48.290;11.460;2023-04-01T10:52:02;11.90;61.80
36322;DHT22;23564;48.290;11.460;2023-04-01T11:09:27;11.60;99.90
36322;DHT22;23564;48.290;11.460;2023-04-01T11:15:26;11.40;99.90
36322;DHT22;23564;48.290;11.460;2023-04-01T11:21:15;11.30;99.90
36322;DHT22;23564;48.290;11.460;2023-04-01T11:23:55;11.40;1.00
36322;DHT22;23564;48.290;11.460;2023-04-01T11:26:44;11.40;1.00
36322;DHT22;23564;48.290;11.460;2023-04-01T11:38:34;11.00;96.90
36322;DHT22;23564;48.290;11.460;2023-04-01T11:50:20;9.70;99.90
36322;DHT22;23564;48.290;11.460;2023-04-01T12:01:28;9.50;99.90
36322;DHT22;23564;48.290;11.460;2023-04-01T12:13:24;9.70;99.90
36322;DHT22;23564;48.290;11.460;2023-04-01T12:16:21;9.60;1.00
36322;DHT22;23564;48.290;11.460;2023-04-01T12:19:03;9.60;99.90
36322;DHT22;23564;48.290;11.460;2023-04-01T12:21:38;9.50;57.00
36322;DHT22;23564;48.290;11.460;2023-04-01T12:27:11;9.40;99.90
36322;DHT22;23564;48.290;11.460;2023-04-01T12:44:11;9.20;99.90
36322;DHT22;23564;48.290;11.460;2023-04-01T12:52:10;9.20;99.90
36322;DHT22;23564;48.290;11.460;2023-04-01T13:00:43;9.20;99.90
36322;DHT22;23564;48.290;11.460;2023-04-01T13:09:28;9.20;99.90
36322;DHT22;23564;48.290;11.460;2023-04-01T13:23:17;9.50;99.90
36322;DHT22;23564;48.290;11.460;2023-04-01T13:28:52;9.60;99.90
36322;DHT22;23564;48.290;11.460;2023-04-01T13:31:31;9.70;99.90
36322;DHT22;23564;48.290;11.460;2023-04-01T13:34:32;9.80;99.90
36322;DHT22;23564;48.290;11.460;2023-04-01T13:39:56;9.80;76.70
36322;DHT22;23564;48.290;11.460;2023-04-01T13:45:01;9.80;7.60
36322;DHT22;23564;48.290;11.460;2023-04-01T13:52:54;9.90;87.40
36322;DHT22;23564;48.290;11.460;2023-04-01T14:01:36;9.80;1.00
36322;DHT22;23564;48.290;11.460;2023-04-01T14:15:02;9.90;99.90
36322;DHT22;23564;48.290;11.460;2023-04-01T14:20:22;10.00;99.90
36322;DHT22;23564;48.290;11.460;2023-04-01T14:23:17;10.20;99.90
36322;DHT22;23564;48.290;11.460;2023-04-01T14:25:58;10.20;99.90
36322;DHT22;23564;48.290;11.460;2023-04-01T14:31:30;10.10;99.90
36322;DHT22;23564;48.290;11.460;2023-04-01T14:37:08;10.20;99.90
36322;DHT22;23564;48.290;11.460;2023-04-01T14:42:59;10.30;1.00
36322;DHT22;23564;48.290;11.460;2023-04-01T14:48:25;10.50;99.90
36322;DHT22;23564;48.290;11.460;2023-04-01T14:50:53;10.50;68.70
36322;DHT22;23564;48.290;11.460;2023-04-01T14:56:06;10.40;1.00
36322;DHT22;23564;48.290;11.460;2023-04-01T14:58:52;10.40;1.00
36322;DHT22;23564;48.290;11.460;2023-04-01T15:01:40;10.40;1.00
36322;DHT22;23564;48.290;11.460;2023-04-01T15:04:37;10.40;1.00
36322;DHT22;23564;48.290;11.460;2023-04-01T15:13:51;10.30;94.90
36322;DHT22;23564;48.290;11.460;2023-04-01T15:25:22;10.10;99.90
36322;DHT22;23564;48.290;11.460;2023-04-01T15:33:37;10.00;99.90
36322;DHT22;23564;48.290;11.460;2023-04-01T15:39:05;10.10;1.00
36322;DHT22;23564;48.290;11.460;2023-04-01T15:41:42;10.10;99.90
36322;DHT22;23564;48.290;11.460;2023-04-01T15:46:53;10.10;99.90
36322;DHT22;23564;48.290;11.460;2023-04-01T15:49:36;10.20;1.00
36322;DHT22;23564;48.290;11.460;2023-04-01T15:55:00;10.20;1.00
36322;DHT22;23564;48.290;11.460;2023-04-01T15:57:47;10.20;99.90
36322;DHT22;23564;48.290;11.460;2023-04-01T16:00:41;10.20;99.90
36322;DHT22;23564;48.290;11.460;2023-04-01T16:11:43;10.20;9.80
36322;DHT22;23564;48.290;11.460;2023-04-01T16:22:54;10.30;99.90
36322;DHT22;23564;48.290;11.460;2023-04-01T16:25:36;10.20;99.90
36322;DHT22;23564;48.290;11.460;2023-04-01T16:34:07;10.00;99.90
36322;DHT22;23564;48.290;11.460;2023-04-01T16:39:32;9.80;1.00
36322;DHT22;23564;48.290;11.460;2023-04-01T16:44:48;9.70;1.00
36322;DHT22;23564;48.290;11.460;2023-04-01T16:47:19;9.70;99.50
36322;DHT22;23564;48.290;11.460;2023-04-01T16:49:58;9.70;29.70
36322;DHT22;23564;48.290;11.460;2023-04-01T16:52:48;9.60;99.90
36322;DHT22;23564;48.290;11.460;2023-04-01T16:55:21;9.60;1.00
36322;DHT22;23564;48.290;11.460;2023-04-01T16:57:52;9.50;1.00
36322;DHT22;23564;48.290;11.460;2023-04-01T17:00:27;9.50;13.40
36322;DHT22;23564;48.290;11.460;2023-04-01T17:14:16;9.40;36.70
36322;DHT22;23564;48.290;11.460;2023-04-01T17:23:00;9.40;1.00
36322;DHT22;23564;48.290;11.460;2023-04-01T17:28:46;9.30;1.00
36322;DHT22;23564;48.290;11.460;2023-04-01T17:44:57;9.20;99.90
36322;DHT22;23564;48.290;11.460;2023-04-01T17:50:24;9.20;99.90
36322;DHT22;23564;48.290;11.460;2023-04-01T17:58:58;9.10;95.30
36322;DHT22;23564;48.290;11.460;2023-04-01T18:01:26;9.10;93.00
36322;DHT22;23564;48.290;11.460;2023-04-01T18:18:35;8.90;99.90
36322;DHT22;23564;48.290;11.460;2023-04-01T18:23:47;8.90;99.90
36322;DHT22;23564;48.290;11.460;2023-04-01T18:26:44;8.90;1.00
36322;DHT22;23564;48.290;11.460;2023-04-01T18:31:46;8.90;99.90
36322;DHT22;23564;48.290;11.460;2023-04-01T18:37:28;8.90;69.80
36322;DHT22;23564;48.290;11.460;2023-04-01T18:45:36;8.90;1.00
36322;DHT22;23564;48.290;11.460;2023-04-01T18:50:55;8.90;1.00
36322;DHT22;23564;48.290;11.460;2023-04-01T18:56:03;8.90;67.40
36322;DHT22;23564;48.290;11.460;2023-04-01T19:01:22;8.90;85.60
36322;DHT22;23564;48.290;11.460;2023-04-01T19:06:49;8.80;99.90
36322;DHT22;23564;48.290;11.460;2023-04-01T19:12:02;8.90;99.90
36322;DHT22;23564;48.290;11.460;2023-04-01T19:25:25;8.90;99.90
36322;DHT22;23564;48.290;11.460;2023-04-01T19:27:54;8.80;87.50
36322;DHT22;23564;48.290;11.460;2023-04-01T19:30:36;8.80;1.00
36322;DHT22;23564;48.290;11.460;2023-04-01T19:36:15;8.80;99.90
36322;DHT22;23564;48.290;11.460;2023-04-01T19:38:53;8.80;99.90
36322;DHT22;23564;48.290;11.460;2023-04-01T19:41:40;8.70;99.90
36322;DHT22;23564;48.290;11.460;2023-04-01T19:44:51;8.70;99.90
36322;DHT22;23564;48.290;11.460;2023-04-01T19:51:00;8.60;1.00
36322;DHT22;23564;48.290;11.460;2023-04-01T19:53:45;8.60;1.00
36322;DHT22;23564;48.290;11.460;2023-04-01T19:56:20;8.70;1.00
36322;DHT22;23564;48.290;11.460;2023-04-01T20:04:43;8.60;1.00
36322;DHT22;23564;48.290;11.460;2023-04-01T20:07:52;8.60;1.00
36322;DHT22;23564;48.290;11.460;2023-04-01T20:10:53;8.60;1.00
36322;DHT22;23564;48.290;11.460;2023-04-01T20:16:04;8.50;61.20
36322;DHT22;23564;48.290;11.460;2023-04-01T20:18:56;8.40;99.90
36322;DHT22;23564;48.290;11.460;2023-04-01T20:21:50;8.40;99.90
36322;DHT22;23564;48.290;11.460;2023-04-01T20:24:37;8.40;99.90
36322;DHT22;23564;48.290;11.460;2023-04-01T20:27:17;8.40;99.90
36322;DHT22;23564;48.290;11.460;2023-04-01T20:30:13;8.40;99.90
36322;DHT22;23564;48.290;11.460;2023-04-01T20:38:41;8.30;1.00
36322;DHT22;23564;48.290;11.460;2023-04-01T20:44:09;8.30;1.00
36322;DHT22;23564;48.290;11.460;2023-04-01T20:46:49;8.30;1.00
36322;DHT22;23564;48.290;11.460;2023-04-01T20:52:29;8.30;1.00
36322;DHT22;23564;48.290;11.460;2023-04-01T20:58:00;8.30;1.00
36322;DHT22;23564;48.290;11.460;2023-04-01T21:00:45;8.30;1.00
36322;DHT22;23564;48.290;11.460;2023-04-01T21:06:17;8.30;1.00
36322;DHT22;23564;48.290;11.460;2023-04-01T21:09:11;8.20;1.00
36322;DHT22;23564;48.290;11.460;2023-04-01T21:17:17;8.20;1.00
36322;DHT22;23564;48.290;11.460;2023-04-01T21:25:53;8.20;1.00
36322;DHT22;23564;48.290;11.460;2023-04-01T21:28:41;8.20;1.00
36322;DHT22;23564;48.290;11.460;2023-04-01T21:31:27;8.20;1.00
36322;DHT22;23564;48.290;11.460;2023-04-01T21:34:42;8.20;1.00
36322;DHT22;23564;48.290;11.460;2023-04-01T21:45:22;8.20;1.00
36322;DHT22;23564;48.290;11.460;2023-04-01T21:48:31;8.20;1.00
36322;DHT22;23564;48.290;11.460;2023-04-01T21:54:04;8.10;1.00
36322;DHT22;23564;48.290;11.460;2023-04-01T21:57:11;8.10;1.00
36322;DHT22;23564;48.290;11.460;2023-04-01T22:07:54;8.10;28.80
36322;DHT22;23564;48.290;11.460;2023-04-01T22:10:48;8.10;88.30
36322;DHT22;23564;48.290;11.460;2023-04-01T22:13:19;8.10;98.70
36322;DHT22;23564;48.290;11.460;2023-04-01T22:16:00;8.10;69.30
36322;DHT22;23564;48.290;11.460;2023-04-01T22:21:10;8.10;99.90
36322;DHT22;23564;48.290;11.460;2023-04-01T22:23:52;8.10;99.90
36322;DHT22;23564;48.290;11.460;2023-04-01T22:26:46;8.20;59.60
36322;DHT22;23564;48.290;11.460;2023-04-01T22:29:17;8.10;65.10
36322;DHT22;23564;48.290;11.460;2023-04-01T22:31:54;8.10;96.40
36322;DHT22;23564;48.290;11.460;2023-04-01T22:42:53;8.00;99.90
36322;DHT22;23564;48.290;11.460;2023-04-01T22:45:39;8.00;99.90
36322;DHT22;23564;48.290;11.460;2023-04-01T22:48:23;8.00;99.90
36322;DHT22;23564;48.290;11.460;2023-04-01T22:51:37;8.00;99.90
36322;DHT22;23564;48.290;11.460;2023-04-01T22:57:03;7.90;99.90
36322;DHT22;23564;48.290;11.460;2023-04-01T22:59:50;7.80;99.90
36322;DHT22;23564;48.290;11.460;2023-04-01T23:02:29;7.70;99.90
36322;DHT22;23564;48.290;11.460;2023-04-01T23:04:57;7.60;99.90
36322;DHT22;23564;48.290;11.460;2023-04-01T23:09:58;7.60;99.90
36322;DHT22;23564;48.290;11.460;2023-04-01T23:12:26;7.50;99.90
36322;DHT22;23564;48.290;11.460;2023-04-01T23:15:00;7.50;99.90
36322;DHT22;23564;48.290;11.460;2023-04-01T23:20:51;7.50;99.90
36322;DHT22;23564;48.290;11.460;2023-04-01T23:28:44;7.50;99.90
36322;DHT22;23564;48.290;11.460;2023-04-01T23:31:37;7.50;99.90
36322;DHT22;23564;48.290;11.460;2023-04-01T23:36:41;7.50;99.90
36322;DHT22;23564;48.290;11.460;2023-04-01T23:42:41;7.60;99.90
36322;DHT22;23564;48.290;11.460;2023-04-01T23:45:00;7.50;99.90
36322;DHT22;23564;48.290;11.460;2023-04-01T23:47:31;7.50;99.90
36322;DHT22;23564;48.290;11.460;2023-04-01T23:50:01;7.50;99.90
36322;DHT22;23564;48.290;11.460;2023-04-01T23:52:31;7.50;99.90
36322;DHT22;23564;48.290;11.460;2023-04-01T23:55:23;7.50;99.90
